Time;durP1;ratioP1;P1;durP2;ratioP2;P2;SDS_P1;SDS_P2;PMS_P1;PMS_P2;Temp;Humidity;BMP_temperature;BMP_pressure;BME280_temperature;BME280_humidity;BME280_pressure;Samples;Min_cycle;Max_cycle;Signal;HPM_P1;HPM_P2
2021/12/07 00:01:38;;;;;;;25.80;15.60;;;-0.10;99.90;;;;;;5091578;28;20044;-67
2021/12/07 00:04:07;;;;;;;24.05;13.88;;;-0.10;99.90;;;;;;5073179;28;20036;-67
2021/12/07 00:06:35;;;;;;;24.50;14.27;;;-0.10;99.90;;;;;;5091707;28;20040;-66
2021/12/07 00:09:10;;;;;;;25.20;14.18;;;0.00;99.90;;;;;;5091455;28;20482;-65
2021/12/07 00:11:37;;;;;;;25.48;14.02;;;0.00;99.90;;;;;;5091744;28;20049;-66
2021/12/07 00:14:12;;;;;;;23.92;14.80;;;0.00;99.90;;;;;;5091306;28;20409;-66
2021/12/07 00:16:44;;;;;;;24.67;14.02;;;0.00;99.90;;;;;;5083883;28;20123;-66
2021/12/07 00:19:12;;;;;;;25.38;14.25;;;0.00;99.90;;;;;;5091081;28;20410;-66
2021/12/07 00:21:42;;;;;;;25.25;15.15;;;0.10;99.90;;;;;;5091406;28;20055;-66
2021/12/07 00:24:11;;;;;;;22.88;13.52;;;0.10;99.90;;;;;;5090734;28;20461;-66
2021/12/07 00:26:40;;;;;;;27.90;14.57;;;0.10;99.90;;;;;;5088973;28;20512;-66
2021/12/07 00:29:09;;;;;;;27.38;14.73;;;0.20;99.90;;;;;;5090505;28;20068;-66
2021/12/07 00:31:47;;;;;;;25.25;15.15;;;0.20;99.90;;;;;;5090584;28;20036;-66
2021/12/07 00:34:39;;;;;;;28.25;14.77;;;0.20;99.90;;;;;;5055808;28;20036;-66
2021/12/07 00:37:08;;;;;;;25.25;14.55;;;0.30;99.90;;;;;;5072140;28;20101;-66
2021/12/07 00:39:37;;;;;;;23.48;14.73;;;0.30;99.90;;;;;;5090555;28;20505;-66
2021/12/07 00:42:05;;;;;;;26.75;15.07;;;0.40;99.90;;;;;;5067748;28;20059;-66
2021/12/07 00:44:32;;;;;;;28.35;15.98;;;0.40;99.90;;;;;;5072553;28;20040;-66
2021/12/07 00:46:59;;;;;;;24.25;14.57;;;0.40;99.90;;;;;;5071562;28;20074;-66
2021/12/07 00:49:27;;;;;;;27.88;15.20;;;0.40;99.90;;;;;;5090130;28;20059;-66
2021/12/07 00:51:54;;;;;;;26.05;14.82;;;0.40;99.90;;;;;;5092569;28;20040;-66
2021/12/07 00:54:22;;;;;;;26.80;15.32;;;0.50;99.90;;;;;;5065330;28;20131;-66
2021/12/07 00:56:49;;;;;;;28.80;15.88;;;0.50;99.90;;;;;;5090432;28;20135;-66
2021/12/07 00:59:18;;;;;;;29.73;15.50;;;0.50;99.90;;;;;;5076747;28;20079;-66
2021/12/07 01:01:45;;;;;;;27.17;15.65;;;0.50;99.90;;;;;;5107441;28;20134;-66
2021/12/07 01:04:14;;;;;;;27.38;16.45;;;0.50;99.90;;;;;;5094591;28;20098;-66
2021/12/07 01:07:00;;;;;;;27.92;15.40;;;0.50;99.90;;;;;;5081689;28;20083;-66
2021/12/07 01:24:38;;;;;;;28.02;15.50;;;0.50;99.90;;;;;;5084701;28;20451;-66
2021/12/07 01:26:15;;;;;;;26.63;15.00;;;0.40;99.90;;;;;;5094136;28;20098;-66
2021/12/07 01:28:45;;;;;;;28.98;16.35;;;0.50;99.90;;;;;;5094362;28;20415;-66
2021/12/07 01:31:21;;;;;;;30.65;16.50;;;0.50;99.90;;;;;;5076238;28;20430;-66
2021/12/07 01:50:08;;;;;;;28.50;16.15;;;0.40;99.90;;;;;;5071144;28;20044;-66
2021/12/07 02:00:30;;;;;;;30.13;16.70;;;0.40;99.90;;;;;;5075043;28;20046;-66
2021/12/07 02:02:58;;;;;;;32.08;17.40;;;0.40;99.90;;;;;;5093018;28;20040;-66
2021/12/07 02:05:26;;;;;;;28.52;16.33;;;0.50;99.90;;;;;;5076952;28;20038;-67
2021/12/07 02:07:54;;;;;;;31.63;17.42;;;0.50;99.90;;;;;;5083999;28;20089;-66
2021/12/07 02:10:26;;;;;;;33.22;17.73;;;0.50;99.90;;;;;;5073315;28;20067;-66
2021/12/07 02:13:17;;;;;;;30.00;16.90;;;0.60;99.90;;;;;;5075430;28;20052;-66
2021/12/07 02:15:45;;;;;;;33.22;17.98;;;0.60;99.90;;;;;;5074664;28;20478;-66
2021/12/07 02:18:12;;;;;;;27.05;15.85;;;0.70;99.90;;;;;;5065562;28;20121;-66
2021/12/07 02:20:40;;;;;;;27.92;16.70;;;0.70;99.90;;;;;;5075215;28;20039;-66
2021/12/07 02:23:09;;;;;;;28.35;16.27;;;0.70;99.90;;;;;;5091762;28;20044;-67
2021/12/07 02:25:36;;;;;;;28.90;16.42;;;0.70;99.90;;;;;;5074594;28;20044;-67
2021/12/07 02:28:11;;;;;;;28.65;16.08;;;0.80;99.90;;;;;;5088183;28;20044;-66
2021/12/07 02:30:39;;;;;;;26.83;15.13;;;0.80;99.90;;;;;;5078237;28;20047;-66
2021/12/07 02:33:07;;;;;;;29.55;16.85;;;0.90;99.90;;;;;;5091060;28;20044;-66
2021/12/07 02:35:35;;;;;;;30.02;16.27;;;1.00;99.90;;;;;;5055660;28;20447;-66
2021/12/07 02:38:03;;;;;;;29.50;16.90;;;1.00;99.90;;;;;;5074082;28;20076;-66
2021/12/07 02:40:34;;;;;;;28.80;17.05;;;1.00;99.90;;;;;;5056953;28;20756;-66
2021/12/07 02:43:03;;;;;;;28.20;16.55;;;1.00;99.90;;;;;;5072268;28;20548;-66
2021/12/07 02:45:31;;;;;;;30.80;17.15;;;0.90;99.90;;;;;;5067880;28;20060;-66
2021/12/07 02:47:58;;;;;;;29.17;17.42;;;0.90;99.90;;;;;;5070547;28;20040;-66
2021/12/07 02:50:26;;;;;;;30.88;17.70;;;0.90;99.90;;;;;;5065162;28;20105;-66
2021/12/07 02:52:53;;;;;;;32.13;17.80;;;0.90;99.90;;;;;;5045612;28;20126;-66
2021/12/07 02:55:21;;;;;;;32.28;18.40;;;0.90;99.90;;;;;;5083011;28;20047;-66
2021/12/07 02:57:48;;;;;;;34.42;18.80;;;0.80;99.90;;;;;;5078655;28;20045;-66
2021/12/07 03:00:22;;;;;;;34.95;19.15;;;0.80;99.90;;;;;;5095941;28;20514;-66
2021/12/07 03:02:59;;;;;;;34.72;18.13;;;0.80;99.90;;;;;;5056221;28;20537;-66
2021/12/07 03:05:40;;;;;;;33.67;20.00;;;0.90;99.90;;;;;;5074345;28;20036;-66
2021/12/07 03:28:12;;;;;;;35.60;19.25;;;0.90;99.90;;;;;;5062836;28;20036;-66
2021/12/07 03:30:40;;;;;;;37.83;19.35;;;0.90;99.90;;;;;;5073680;28;20036;-67
2021/12/07 03:33:09;;;;;;;40.40;21.58;;;0.80;99.90;;;;;;5079345;28;20047;-67
2021/12/07 03:35:37;;;;;;;45.50;22.80;;;0.90;99.90;;;;;;5078823;28;20119;-66
2021/12/07 03:38:07;;;;;;;45.85;23.48;;;0.90;99.90;;;;;;5052511;28;20101;-66
2021/12/07 03:40:36;;;;;;;41.45;22.08;;;0.90;99.90;;;;;;5078744;28;20051;-66
2021/12/07 03:43:07;;;;;;;42.92;22.70;;;0.90;99.90;;;;;;5076723;28;20052;-66
2021/12/07 03:45:34;;;;;;;42.13;21.95;;;0.90;99.90;;;;;;5073791;28;20047;-66
2021/12/07 03:48:05;;;;;;;44.67;23.33;;;0.90;99.90;;;;;;5074058;28;20039;-67
2021/12/07 03:50:34;;;;;;;39.17;21.83;;;1.00;99.90;;;;;;5099604;28;20046;-66
2021/12/07 03:53:03;;;;;;;40.17;22.00;;;0.90;99.90;;;;;;5072786;28;20448;-66
2021/12/07 03:55:30;;;;;;;41.63;22.65;;;1.00;99.90;;;;;;5091008;28;20040;-67
2021/12/07 03:57:59;;;;;;;44.53;23.60;;;1.00;99.90;;;;;;5073258;28;20040;-67
2021/12/07 04:00:29;;;;;;;42.20;22.45;;;1.00;99.90;;;;;;5071304;28;20067;-67
2021/12/07 04:03:02;;;;;;;43.42;23.60;;;1.00;99.90;;;;;;5071662;28;20064;-67
2021/12/07 04:05:29;;;;;;;41.67;22.08;;;1.00;99.90;;;;;;5075318;28;20065;-66
2021/12/07 04:07:57;;;;;;;43.53;23.80;;;1.00;99.90;;;;;;5072830;28;20141;-67
2021/12/07 04:10:25;;;;;;;44.72;22.30;;;1.00;99.90;;;;;;5089883;28;20040;-66
2021/12/07 04:12:53;;;;;;;42.30;23.50;;;1.10;99.90;;;;;;5071279;28;20032;-66
2021/12/07 04:15:21;;;;;;;39.25;22.20;;;1.10;99.90;;;;;;5077629;28;20051;-66
2021/12/07 04:17:49;;;;;;;45.88;23.92;;;1.10;99.90;;;;;;5079244;28;20119;-67
2021/12/07 04:20:18;;;;;;;43.78;22.52;;;1.10;99.90;;;;;;5072240;28;20054;-67
2021/12/07 04:22:46;;;;;;;40.97;22.55;;;1.10;99.90;;;;;;5072167;28;20119;-67
2021/12/07 04:25:17;;;;;;;41.33;22.85;;;1.10;99.90;;;;;;5071722;28;20101;-66
2021/12/07 04:27:45;;;;;;;42.95;22.83;;;1.10;99.90;;;;;;5089251;28;20036;-66
2021/12/07 04:30:20;;;;;;;41.17;22.50;;;1.20;99.90;;;;;;5083286;28;20047;-66
2021/12/07 04:32:48;;;;;;;45.88;23.40;;;1.10;99.90;;;;;;5089175;28;20048;-67
2021/12/07 04:35:16;;;;;;;39.28;21.40;;;1.10;99.90;;;;;;5090823;28;20560;-67
2021/12/07 04:37:44;;;;;;;41.90;22.02;;;1.10;99.90;;;;;;5091523;28;20226;-66
2021/12/07 04:40:15;;;;;;;41.35;22.45;;;1.10;99.90;;;;;;5100061;28;20074;-67
2021/12/07 04:42:44;;;;;;;41.90;22.15;;;1.20;99.90;;;;;;5089081;28;20070;-66
2021/12/07 04:45:24;;;;;;;38.58;21.00;;;1.30;99.90;;;;;;5081465;28;20036;-66
2021/12/07 04:48:27;;;;;;;36.47;19.35;;;1.40;99.90;;;;;;5083820;28;20120;-66
2021/12/07 04:59:13;;;;;;;36.92;20.48;;;1.30;99.90;;;;;;5084709;28;20079;-67
2021/12/07 05:01:40;;;;;;;35.67;19.98;;;1.40;99.90;;;;;;5082145;28;20625;-67
2021/12/07 05:04:13;;;;;;;34.28;19.52;;;1.50;99.90;;;;;;5087927;28;20421;-66
2021/12/07 05:06:47;;;;;;;38.70;19.95;;;1.50;99.90;;;;;;5068975;28;20039;-67
2021/12/07 05:14:32;;;;;;;38.17;19.75;;;1.50;99.90;;;;;;5070907;28;20051;-66
2021/12/07 05:39:08;;;;;;;34.42;17.30;;;1.70;99.90;;;;;;5087196;28;20044;-67
2021/12/07 05:41:36;;;;;;;32.28;18.02;;;1.70;99.90;;;;;;5074911;28;20464;-66
2021/12/07 05:44:04;;;;;;;27.48;15.60;;;1.70;99.90;;;;;;5086716;28;20049;-67
2021/12/07 05:46:31;;;;;;;28.65;16.58;;;1.80;99.90;;;;;;5091965;28;20044;-67
2021/12/07 05:48:58;;;;;;;30.63;17.08;;;1.80;99.90;;;;;;5093711;28;20043;-66
2021/12/07 05:51:26;;;;;;;31.50;17.10;;;1.80;99.90;;;;;;5089750;28;20044;-67
2021/12/07 05:53:53;;;;;;;27.77;16.30;;;1.80;99.90;;;;;;5080654;28;20372;-66
2021/12/07 05:56:20;;;;;;;30.88;16.60;;;1.90;99.90;;;;;;5080211;28;20524;-66
2021/12/07 05:58:47;;;;;;;24.98;14.32;;;1.90;99.90;;;;;;5085878;28;20062;-66
2021/12/07 06:01:15;;;;;;;29.95;15.55;;;1.90;99.90;;;;;;5081514;28;20482;-66
2021/12/07 06:03:42;;;;;;;26.60;14.82;;;1.90;99.90;;;;;;5086121;28;20044;-65
2021/12/07 06:06:13;;;;;;;25.43;14.30;;;1.90;99.90;;;;;;5080781;28;20067;-66
2021/12/07 06:08:40;;;;;;;23.77;13.00;;;1.90;99.90;;;;;;5090533;28;20051;-65
2021/12/07 06:11:08;;;;;;;20.75;11.70;;;2.00;99.90;;;;;;5082759;28;20048;-65
2021/12/07 06:13:35;;;;;;;19.88;10.05;;;2.00;99.90;;;;;;5079448;28;20461;-65
2021/12/07 06:16:07;;;;;;;13.63;9.10;;;2.00;99.90;;;;;;5088187;28;20056;-66
2021/12/07 06:18:36;;;;;;;17.90;9.35;;;2.10;99.90;;;;;;5080935;28;20063;-66
2021/12/07 06:21:04;;;;;;;17.00;8.63;;;2.10;99.90;;;;;;5073518;28;20040;-66
2021/12/07 06:23:31;;;;;;;16.25;9.52;;;2.10;99.90;;;;;;5086137;28;20044;-65
2021/12/07 06:25:59;;;;;;;13.88;8.27;;;2.10;99.90;;;;;;5071485;28;20070;-66
2021/12/07 06:28:26;;;;;;;13.98;7.47;;;2.10;99.90;;;;;;5066174;28;20051;-65
2021/12/07 06:30:54;;;;;;;13.82;7.38;;;2.10;99.90;;;;;;5084237;28;20032;-66
2021/12/07 06:33:23;;;;;;;16.27;5.60;;;2.10;99.90;;;;;;5073660;28;20066;-66
2021/12/07 06:35:57;;;;;;;8.48;5.47;;;2.10;99.90;;;;;;5088104;28;20520;-65
2021/12/07 06:38:26;;;;;;;9.13;5.53;;;2.20;99.90;;;;;;5091850;28;20048;-66
2021/12/07 06:40:54;;;;;;;9.40;5.50;;;2.10;99.90;;;;;;5089582;28;20044;-66
2021/12/07 06:43:22;;;;;;;9.60;4.45;;;2.20;99.90;;;;;;5083970;28;20043;-66
2021/12/07 06:45:50;;;;;;;12.27;4.78;;;2.20;99.90;;;;;;5073768;28;20387;-66
2021/12/07 06:48:18;;;;;;;10.52;5.20;;;2.20;99.90;;;;;;5053108;28;20032;-67
2021/12/07 06:50:46;;;;;;;8.02;4.82;;;2.20;99.90;;;;;;5074758;28;20507;-66
2021/12/07 06:53:13;;;;;;;14.63;5.22;;;2.20;99.90;;;;;;5080862;28;20043;-66
2021/12/07 06:55:42;;;;;;;11.80;4.70;;;2.20;99.90;;;;;;5089269;28;20043;-66
2021/12/07 06:58:10;;;;;;;8.23;5.18;;;2.30;99.90;;;;;;5080588;28;20048;-65
2021/12/07 07:00:37;;;;;;;10.18;5.35;;;2.30;99.90;;;;;;5090675;28;20062;-65
2021/12/07 07:03:05;;;;;;;9.75;4.75;;;2.30;99.90;;;;;;5091716;28;20447;-66
2021/12/07 07:05:33;;;;;;;7.60;4.57;;;2.30;99.90;;;;;;5092020;28;20064;-65
2021/12/07 07:08:02;;;;;;;11.80;4.97;;;2.20;99.90;;;;;;5092395;28;20040;-65
2021/12/07 07:10:29;;;;;;;12.70;5.30;;;2.30;99.90;;;;;;5090687;28;20036;-65
2021/12/07 07:12:56;;;;;;;8.73;5.35;;;2.30;99.90;;;;;;5090432;28;20046;-65
2021/12/07 07:15:24;;;;;;;7.75;4.45;;;2.40;99.90;;;;;;5072175;28;20037;-64
2021/12/07 07:17:51;;;;;;;8.15;5.00;;;2.40;99.90;;;;;;5092830;28;20040;-65
2021/12/07 07:20:18;;;;;;;9.70;5.35;;;2.40;99.90;;;;;;5090033;28;20048;-65
2021/12/07 07:22:46;;;;;;;6.40;4.28;;;2.40;99.90;;;;;;5091005;28;20052;-66
2021/12/07 07:25:14;;;;;;;7.75;4.88;;;2.40;99.90;;;;;;5090303;28;20478;-66
2021/12/07 07:27:41;;;;;;;10.75;4.80;;;2.40;99.90;;;;;;5072809;28;20118;-66
2021/12/07 07:30:10;;;;;;;10.48;4.68;;;2.40;99.90;;;;;;5089639;28;20073;-66
2021/12/07 07:32:38;;;;;;;9.18;5.03;;;2.40;99.90;;;;;;5087293;28;20036;-66
2021/12/07 07:35:07;;;;;;;10.13;4.80;;;2.50;99.90;;;;;;5067886;28;20054;-66
2021/12/07 07:37:36;;;;;;;7.32;4.53;;;2.50;99.90;;;;;;5056646;28;20063;-65
2021/12/07 07:40:07;;;;;;;6.95;4.60;;;2.60;99.90;;;;;;5084150;28;20042;-64
2021/12/07 07:42:36;;;;;;;8.38;4.78;;;2.60;99.90;;;;;;5081070;28;20110;-66
2021/12/07 07:45:15;;;;;;;11.00;3.90;;;2.60;99.90;;;;;;5066815;28;20118;-65
2021/12/07 07:47:42;;;;;;;8.23;4.45;;;2.60;99.90;;;;;;5092444;28;20131;-66
2021/12/07 07:50:11;;;;;;;10.10;5.00;;;2.70;99.90;;;;;;5081609;28;20123;-66
2021/12/07 07:52:40;;;;;;;9.70;4.60;;;2.70;99.90;;;;;;4932225;28;20373;-65
2021/12/07 07:55:10;;;;;;;9.07;4.72;;;2.80;99.90;;;;;;5014792;28;20513;-66
2021/12/07 07:57:37;;;;;;;15.88;5.13;;;2.80;99.90;;;;;;5037683;28;20045;-66
2021/12/07 08:00:08;;;;;;;11.63;5.25;;;2.90;99.90;;;;;;5032976;28;20095;-65
2021/12/07 08:02:38;;;;;;;12.07;4.63;;;2.90;99.90;;;;;;5045328;28;20066;-65
2021/12/07 08:05:07;;;;;;;9.57;4.68;;;2.80;99.90;;;;;;5048105;28;20049;-66
2021/12/07 08:07:34;;;;;;;9.07;4.18;;;2.90;99.90;;;;;;5040121;28;20045;-66
2021/12/07 08:10:06;;;;;;;5.68;3.95;;;2.90;99.90;;;;;;5036961;28;20111;-66
2021/12/07 08:13:11;;;;;;;6.65;4.13;;;3.00;99.90;;;;;;5029184;28;20069;-66
2021/12/07 08:15:43;;;;;;;8.38;3.83;;;3.00;99.90;;;;;;5045379;28;20112;-65
2021/12/07 08:18:11;;;;;;;12.23;4.50;;;3.10;99.90;;;;;;5024894;28;20519;-66
2021/12/07 08:20:40;;;;;;;6.70;4.13;;;3.10;99.90;;;;;;5033602;28;20475;-66
2021/12/07 08:23:08;;;;;;;8.60;4.22;;;3.10;99.90;;;;;;5048120;28;20049;-66
2021/12/07 08:25:40;;;;;;;11.23;4.00;;;3.10;99.90;;;;;;5027857;28;20092;-64
2021/12/07 08:28:45;;;;;;;8.00;3.95;;;3.10;99.90;;;;;;5028955;28;20510;-66
2021/12/07 08:31:12;;;;;;;9.88;4.15;;;3.20;99.90;;;;;;5032077;28;20051;-66
2021/12/07 08:33:40;;;;;;;7.75;3.70;;;3.20;99.90;;;;;;5021853;28;20049;-65
2021/12/07 08:36:07;;;;;;;10.00;3.58;;;3.20;99.90;;;;;;5026849;28;20451;-65
2021/12/07 08:38:34;;;;;;;10.98;3.78;;;3.20;99.90;;;;;;5019368;28;20091;-63
2021/12/07 08:41:02;;;;;;;7.57;3.88;;;3.20;99.90;;;;;;5033446;28;20132;-64
2021/12/07 08:43:32;;;;;;;7.95;3.90;;;3.20;99.90;;;;;;5046169;28;20052;-64
2021/12/07 08:46:01;;;;;;;10.93;4.53;;;3.20;99.90;;;;;;5038681;28;20038;-64
2021/12/07 08:48:28;;;;;;;12.00;4.20;;;3.20;99.90;;;;;;5034041;28;20033;-64
2021/12/07 08:50:57;;;;;;;11.40;4.53;;;3.20;99.90;;;;;;5042177;28;20063;-65
2021/12/07 08:53:25;;;;;;;9.82;4.50;;;3.20;99.90;;;;;;5016080;28;21450;-65
2021/12/07 09:01:28;;;;;;;8.15;3.33;;;3.30;99.90;;;;;;5027066;28;20059;-65
2021/12/07 09:03:58;;;;;;;9.23;3.08;;;3.40;99.90;;;;;;5022813;28;20049;-65
2021/12/07 09:06:26;;;;;;;6.10;3.58;;;3.40;99.90;;;;;;5019351;28;20404;-66
2021/12/07 09:08:55;;;;;;;7.78;3.33;;;3.40;99.90;;;;;;5039945;28;20045;-65
2021/12/07 09:11:23;;;;;;;14.88;4.50;;;3.50;99.90;;;;;;5027470;28;20041;-66
2021/12/07 09:13:51;;;;;;;14.45;3.67;;;3.50;99.90;;;;;;5039636;28;20095;-66
2021/12/07 09:16:20;;;;;;;7.43;2.85;;;3.60;99.90;;;;;;5032923;28;20042;-64
2021/12/07 09:18:49;;;;;;;8.98;3.20;;;3.70;99.90;;;;;;5024269;28;20038;-65
2021/12/07 09:21:17;;;;;;;7.00;3.30;;;3.80;99.90;;;;;;5039654;28;20045;-65
2021/12/07 09:23:44;;;;;;;9.70;3.70;;;3.90;99.90;;;;;;5043526;28;20045;-65
2021/12/07 09:26:11;;;;;;;9.55;3.63;;;3.80;99.90;;;;;;5042493;28;20033;-65
2021/12/07 09:28:39;;;;;;;9.40;3.60;;;3.80;99.90;;;;;;5025245;28;20050;-66
2021/12/07 09:31:09;;;;;;;6.93;3.03;;;3.80;99.90;;;;;;5041121;28;20068;-66
2021/12/07 09:33:37;;;;;;;16.23;3.70;;;3.80;99.90;;;;;;5021511;28;20163;-64
2021/12/07 09:36:06;;;;;;;9.75;3.85;;;3.70;99.90;;;;;;5029943;28;20500;-65
2021/12/07 09:38:34;;;;;;;9.88;4.50;;;3.60;99.90;;;;;;5042877;28;20045;-65
2021/12/07 09:41:06;;;;;;;12.25;4.50;;;3.60;99.90;;;;;;5041313;28;20115;-65
2021/12/07 09:43:34;;;;;;;8.00;3.70;;;3.70;99.90;;;;;;5036470;28;20601;-64
2021/12/07 09:46:05;;;;;;;8.85;4.05;;;3.70;99.90;;;;;;5037719;28;20073;-64
2021/12/07 09:48:33;;;;;;;9.85;3.88;;;3.70;99.90;;;;;;5033215;28;20049;-66
2021/12/07 09:51:03;;;;;;;8.32;3.70;;;3.70;99.90;;;;;;5020073;28;20046;-64
2021/12/07 09:53:30;;;;;;;10.25;3.50;;;3.80;99.90;;;;;;5035913;28;20488;-66
2021/12/07 09:55:59;;;;;;;7.65;3.65;;;3.90;99.90;;;;;;5025753;28;20061;-65
2021/12/07 09:58:26;;;;;;;11.85;3.85;;;4.00;99.90;;;;;;5041135;28;20052;-64
2021/12/07 10:00:54;;;;;;;10.35;3.88;;;4.00;99.90;;;;;;5029979;28;20060;-65
2021/12/07 10:03:23;;;;;;;11.40;3.60;;;4.00;99.90;;;;;;5018168;28;20062;-65
2021/12/07 10:05:52;;;;;;;11.70;3.22;;;4.00;99.90;;;;;;5026457;28;20061;-66
2021/12/07 10:08:19;;;;;;;8.50;3.75;;;4.10;99.90;;;;;;5021957;28;20125;-66
2021/12/07 10:10:53;;;;;;;8.30;3.55;;;4.00;99.90;;;;;;5023125;28;20052;-65
2021/12/07 10:13:23;;;;;;;11.50;3.97;;;4.00;99.90;;;;;;5026665;28;20458;-66
2021/12/07 10:15:53;;;;;;;8.43;3.78;;;4.10;99.90;;;;;;5020057;28;20069;-64
2021/12/07 10:18:25;;;;;;;9.40;3.28;;;4.20;99.90;;;;;;5016483;28;20535;-64
2021/12/07 10:21:13;;;;;;;9.80;3.53;;;4.30;99.90;;;;;;5025333;28;20214;-64
2021/12/07 10:23:49;;;;;;;10.07;3.45;;;4.30;99.90;;;;;;5024587;28;20046;-66
2021/12/07 10:26:25;;;;;;;7.05;3.60;;;4.50;99.90;;;;;;5019505;28;20696;-66
2021/12/07 10:28:57;;;;;;;7.90;3.22;;;4.80;99.90;;;;;;5036478;28;20049;-66
2021/12/07 10:31:48;;;;;;;4.88;2.75;;;5.10;99.90;;;;;;5037025;28;20050;-66
2021/12/07 10:34:17;;;;;;;6.88;2.80;;;6.00;99.90;;;;;;5039213;28;20033;-65
2021/12/07 10:36:58;;;;;;;7.38;3.17;;;6.50;99.90;;;;;;5018081;28;20100;-66
2021/12/07 10:39:31;;;;;;;12.00;2.97;;;6.50;99.90;;;;;;5038139;28;20041;-66
2021/12/07 10:42:05;;;;;;;9.68;2.90;;;6.40;99.90;;;;;;5029390;28;20057;-66
2021/12/07 10:44:53;;;;;;;12.95;3.30;;;6.10;99.90;;;;;;5029499;28;20040;-65
2021/12/07 10:47:23;;;;;;;11.98;4.00;;;5.60;99.90;;;;;;5022765;28;20550;-65
2021/12/07 10:49:54;;;;;;;14.10;3.67;;;5.30;99.90;;;;;;5034731;28;20471;-65
2021/12/07 10:52:28;;;;;;;35.72;7.53;;;5.20;99.90;;;;;;5025889;28;20095;-66
2021/12/07 10:55:15;;;;;;;23.20;4.70;;;5.10;99.90;;;;;;5029367;28;20068;-66
2021/12/07 10:57:59;;;;;;;10.18;2.47;;;5.20;99.90;;;;;;5023034;28;20053;-66
2021/12/07 11:00:33;;;;;;;11.77;2.72;;;5.40;99.90;;;;;;5030252;28;20041;-67
2021/12/07 11:03:09;;;;;;;6.32;2.85;;;5.30;99.90;;;;;;5045648;28;20476;-67
2021/12/07 11:05:44;;;;;;;9.23;3.05;;;5.40;99.90;;;;;;5046537;28;20076;-65
2021/12/07 11:08:13;;;;;;;6.40;2.38;;;6.10;99.90;;;;;;5016945;28;20136;-66
2021/12/07 11:10:47;;;;;;;9.48;3.20;;;5.90;99.90;;;;;;5020215;28;20425;-66
2021/12/07 11:13:21;;;;;;;10.38;3.00;;;5.60;99.90;;;;;;5026765;28;20480;-66
2021/12/07 11:15:55;;;;;;;12.10;3.25;;;5.40;99.90;;;;;;5034818;28;20056;-66
2021/12/07 11:18:24;;;;;;;8.98;2.97;;;5.20;99.90;;;;;;5002285;28;20124;-66
2021/12/07 11:20:54;;;;;;;8.38;2.67;;;5.00;99.90;;;;;;5033687;28;20048;-66
2021/12/07 11:23:28;;;;;;;10.52;3.00;;;4.90;99.90;;;;;;5031591;28;20045;-66
2021/12/07 11:31:34;;;;;;;11.15;3.03;;;4.60;99.90;;;;;;5026465;28;20048;-65
2021/12/07 11:34:12;;;;;;;8.73;3.10;;;4.50;99.90;;;;;;5036760;28;20053;-65
2021/12/07 11:36:50;;;;;;;10.35;3.20;;;4.50;99.90;;;;;;5018884;28;20037;-65
2021/12/07 11:39:22;;;;;;;12.85;3.45;;;4.50;99.90;;;;;;5030185;28;20048;-65
2021/12/07 11:41:57;;;;;;;10.02;3.28;;;4.40;99.90;;;;;;5004388;28;20054;-66
2021/12/07 11:44:24;;;;;;;9.80;3.15;;;4.50;99.90;;;;;;5026734;28;20047;-65
2021/12/07 11:46:52;;;;;;;8.73;3.42;;;4.60;99.90;;;;;;5023644;28;20088;-64
2021/12/07 11:49:26;;;;;;;13.98;3.83;;;4.70;99.90;;;;;;5022672;28;20056;-65
2021/12/07 11:51:56;;;;;;;8.40;3.30;;;4.80;99.90;;;;;;5029109;28;20049;-65
2021/12/07 11:54:31;;;;;;;11.32;3.67;;;4.80;99.90;;;;;;5029890;28;20481;-65
2021/12/07 11:57:01;;;;;;;10.30;2.97;;;4.70;99.90;;;;;;5000656;28;20057;-66
2021/12/07 11:59:28;;;;;;;12.02;3.25;;;4.70;99.90;;;;;;5028862;28;20050;-68
2021/12/07 12:01:56;;;;;;;9.50;3.47;;;4.60;99.90;;;;;;5008654;28;20570;-67
2021/12/07 12:04:23;;;;;;;10.85;3.20;;;4.50;99.90;;;;;;5029071;28;20140;-66
2021/12/07 12:06:57;;;;;;;10.95;3.30;;;4.40;99.90;;;;;;5027138;28;20042;-66
2021/12/07 12:09:27;;;;;;;11.85;3.22;;;4.40;99.90;;;;;;5020174;28;20128;-66
2021/12/07 12:12:00;;;;;;;12.60;3.60;;;4.30;99.90;;;;;;5016539;28;20049;-67
2021/12/07 12:14:36;;;;;;;8.85;3.35;;;4.40;99.90;;;;;;5036771;28;20041;-66
2021/12/07 12:17:12;;;;;;;9.23;3.72;;;4.30;99.90;;;;;;5036331;28;20053;-66
2021/12/07 12:20:07;;;;;;;11.95;3.45;;;4.30;99.90;;;;;;5039592;28;20057;-66
2021/12/07 12:22:45;;;;;;;13.13;3.30;;;4.40;99.90;;;;;;5037469;28;20052;-66
2021/12/07 12:25:18;;;;;;;8.35;3.20;;;4.50;99.90;;;;;;5019682;28;20046;-66
2021/12/07 12:27:48;;;;;;;7.68;3.28;;;4.50;99.90;;;;;;5038064;28;20037;-65
2021/12/07 12:30:29;;;;;;;9.68;3.50;;;4.50;99.90;;;;;;5027196;28;20045;-66
2021/12/07 12:33:03;;;;;;;9.68;2.90;;;4.60;99.90;;;;;;5021189;28;20059;-66
2021/12/07 12:36:04;;;;;;;7.13;2.88;;;4.60;99.90;;;;;;5034579;28;20038;-66
2021/12/07 12:38:31;;;;;;;12.05;3.05;;;4.50;99.90;;;;;;5017721;28;20069;-67
2021/12/07 12:41:07;;;;;;;10.70;3.30;;;4.60;99.90;;;;;;5028652;28;20052;-66
2021/12/07 12:43:45;;;;;;;7.95;3.10;;;4.50;99.90;;;;;;4997069;28;20042;-67
2021/12/07 12:46:18;;;;;;;10.77;3.70;;;4.50;99.90;;;;;;5010974;28;20045;-67
2021/12/07 12:48:52;;;;;;;8.88;3.92;;;4.50;99.90;;;;;;5035025;28;20111;-67
2021/12/07 12:51:28;;;;;;;10.55;3.22;;;4.50;99.90;;;;;;5031049;28;20041;-66
2021/12/07 12:53:56;;;;;;;;;;;4.50;99.90;;;;;;5026041;28;20067;-66
2021/12/07 12:56:36;;;;;;;10.13;3.10;;;4.60;99.90;;;;;;5017937;28;20387;-66
2021/12/07 12:59:09;;;;;;;9.70;3.08;;;4.60;99.90;;;;;;5023728;28;20055;-66
2021/12/07 13:01:42;;;;;;;12.63;3.03;;;4.50;99.90;;;;;;5047194;28;20118;-66
2021/12/07 13:04:15;;;;;;;13.50;3.08;;;4.50;99.90;;;;;;5035823;28;20065;-66
2021/12/07 13:07:23;;;;;;;10.73;3.25;;;4.60;99.90;;;;;;5047068;28;20056;-66
2021/12/07 13:09:57;;;;;;;12.55;3.03;;;4.50;99.90;;;;;;5024365;28;20050;-66
2021/12/07 13:12:33;;;;;;;9.35;2.85;;;4.50;99.90;;;;;;5030204;28;20071;-66
2021/12/07 13:15:10;;;;;;;6.93;2.65;;;4.60;99.90;;;;;;5047416;28;20053;-66
2021/12/07 13:17:41;;;;;;;10.55;3.28;;;4.60;99.90;;;;;;5048064;28;20041;-66
2021/12/07 13:20:08;;;;;;;12.60;2.63;;;4.60;99.90;;;;;;5014684;28;20046;-66
2021/12/07 13:22:52;;;;;;;9.88;2.95;;;4.50;99.90;;;;;;5033729;28;20551;-66
2021/12/07 13:25:28;;;;;;;15.98;2.72;;;4.50;99.90;;;;;;5031639;28;20053;-66
2021/12/07 13:28:16;;;;;;;8.77;2.88;;;4.50;99.90;;;;;;5029371;28;20069;-66
2021/12/07 13:30:46;;;;;;;11.85;3.08;;;4.50;99.90;;;;;;5022468;28;20133;-66
2021/12/07 13:33:30;;;;;;;12.23;2.83;;;4.50;99.90;;;;;;5014443;28;20044;-66
2021/12/07 13:35:58;;;;;;;10.30;3.03;;;4.40;99.90;;;;;;5030952;28;20408;-65
2021/12/07 13:38:31;;;;;;;16.63;3.72;;;4.40;99.90;;;;;;5021022;28;20053;-67
2021/12/07 13:41:14;;;;;;;7.45;2.63;;;4.30;99.90;;;;;;5025693;28;20048;-65
2021/12/07 13:43:45;;;;;;;11.05;3.88;;;4.40;99.90;;;;;;5021348;28;20508;-66
2021/12/07 13:46:17;;;;;;;11.25;3.47;;;4.40;99.90;;;;;;5031694;28;20063;-67
2021/12/07 13:48:46;;;;;;;8.10;2.92;;;4.50;99.90;;;;;;5004176;28;20656;-66
2021/12/07 13:51:16;;;;;;;7.80;2.88;;;4.40;99.90;;;;;;5014718;28;20116;-67
2021/12/07 13:53:49;;;;;;;9.88;2.45;;;4.40;99.90;;;;;;5030834;28;20461;-67
2021/12/07 13:56:17;;;;;;;12.82;2.85;;;4.40;99.90;;;;;;5027250;28;20412;-66
2021/12/07 13:58:58;;;;;;;9.32;2.83;;;4.40;99.90;;;;;;5023831;28;20045;-66
2021/12/07 14:01:28;;;;;;;9.15;2.92;;;4.50;99.90;;;;;;5013176;28;20054;-65
2021/12/07 14:03:57;;;;;;;14.05;3.50;;;4.40;99.90;;;;;;5029441;28;20459;-65
2021/12/07 14:06:25;;;;;;;6.43;3.00;;;4.40;99.90;;;;;;5030866;28;20075;-65
2021/12/07 14:09:00;;;;;;;11.50;3.15;;;4.30;99.90;;;;;;5030190;28;20124;-65
2021/12/07 14:11:27;;;;;;;9.88;3.25;;;4.30;99.90;;;;;;5030806;28;20489;-65
2021/12/07 14:13:55;;;;;;;8.63;3.13;;;4.30;99.90;;;;;;5029910;28;20044;-66
2021/12/07 14:16:24;;;;;;;7.88;3.38;;;4.30;99.90;;;;;;5029525;28;20045;-67
2021/12/07 14:18:52;;;;;;;9.30;3.25;;;4.30;99.90;;;;;;5007176;28;20049;-65
2021/12/07 14:21:20;;;;;;;10.60;3.70;;;4.30;99.90;;;;;;5019403;28;20046;-65
2021/12/07 14:23:54;;;;;;;10.90;3.60;;;4.20;99.90;;;;;;4993732;28;20052;-65
2021/12/07 14:26:24;;;;;;;14.00;3.70;;;4.20;99.90;;;;;;5029569;28;20404;-64
2021/12/07 14:29:02;;;;;;;9.45;3.40;;;4.20;99.90;;;;;;5030615;28;20041;-65
2021/12/07 14:31:38;;;;;;;8.45;3.13;;;4.20;99.90;;;;;;5030095;28;20038;-66
2021/12/07 14:34:12;;;;;;;8.93;3.42;;;4.20;99.90;;;;;;5018203;28;20068;-65
2021/12/07 14:37:02;;;;;;;6.10;3.00;;;4.10;99.90;;;;;;5012289;28;20052;-65
2021/12/07 14:39:35;;;;;;;7.57;3.45;;;4.10;99.90;;;;;;5029480;28;20044;-65
2021/12/07 14:42:04;;;;;;;10.77;3.30;;;4.10;99.90;;;;;;5012463;28;20049;-65
2021/12/07 14:44:36;;;;;;;13.18;3.58;;;4.10;99.90;;;;;;5029922;28;20050;-65
2021/12/07 14:47:07;;;;;;;30.57;4.97;;;4.20;99.90;;;;;;5026113;28;20038;-65
2021/12/07 14:49:39;;;;;;;16.70;3.83;;;4.20;99.90;;;;;;5016827;28;20087;-65
2021/12/07 14:52:12;;;;;;;12.52;3.67;;;4.20;99.90;;;;;;5038826;28;20041;-67
2021/12/07 14:54:40;;;;;;;12.38;3.58;;;4.10;99.90;;;;;;5019608;28;20042;-65